sensor_id;sensor_type;location;lat;lon;timestamp;pressure;altitude;pressure_sealevel;temperature;humidity
55486;BME280;49383;-25.924;28.194;2022-09-09T00:01:25;85477.14;;;20.74;33.32
55486;BME280;49383;-25.924;28.194;2022-09-09T00:03:44;85476.31;;;20.46;34.19
55486;BME280;49383;-25.924;28.194;2022-09-09T00:06:11;85474.93;;;20.54;34.98
55486;BME280;49383;-25.924;28.194;2022-09-09T00:08:38;85473.38;;;20.64;33.40
55486;BME280;49383;-25.924;28.194;2022-09-09T00:10:59;85472.65;;;20.78;34.22
55486;BME280;49383;-25.924;28.194;2022-09-09T00:13:27;85472.07;;;20.23;34.21
55486;BME280;49383;-25.924;28.194;2022-09-09T00:15:56;85467.44;;;20.25;33.91
55486;BME280;49383;-25.924;28.194;2022-09-09T00:18:20;85466.97;;;20.21;34.79
55486;BME280;49383;-25.924;28.194;2022-09-09T00:20:44;85462.62;;;20.57;33.93
55486;BME280;49383;-25.924;28.194;2022-09-09T00:23:11;85460.15;;;20.56;34.50
55486;BME280;49383;-25.924;28.194;2022-09-09T00:25:37;85459.84;;;20.37;35.32
55486;BME280;49383;-25.924;28.194;2022-09-09T00:27:55;85459.84;;;20.50;34.10
55486;BME280;49383;-25.924;28.194;2022-09-09T00:30:23;85458.84;;;20.48;34.79
55486;BME280;49383;-25.924;28.194;2022-09-09T00:32:47;85456.54;;;20.33;35.35
55486;BME280;49383;-25.924;28.194;2022-09-09T00:35:18;85458.31;;;20.39;34.57
55486;BME280;49383;-25.924;28.194;2022-09-09T00:37:38;85457.28;;;20.44;35.55
55486;BME280;49383;-25.924;28.194;2022-09-09T00:40:11;85455.23;;;20.44;34.95
55486;BME280;49383;-25.924;28.194;2022-09-09T00:42:34;85453.63;;;20.47;35.53
55486;BME280;49383;-25.924;28.194;2022-09-09T00:45:02;85455.09;;;20.37;35.68
55486;BME280;49383;-25.924;28.194;2022-09-09T00:49:53;85455.08;;;20.35;36.19
55486;BME280;49383;-25.924;28.194;2022-09-09T00:52:22;85455.18;;;20.38;35.58
55486;BME280;49383;-25.924;28.194;2022-09-09T00:54:44;85456.06;;;20.33;36.22
55486;BME280;49383;-25.924;28.194;2022-09-09T00:57:12;85456.80;;;20.49;35.00
55486;BME280;49383;-25.924;28.194;2022-09-09T00:59:31;85457.50;;;20.34;35.62
55486;BME280;49383;-25.924;28.194;2022-09-09T01:01:52;85454.97;;;20.38;35.17
55486;BME280;49383;-25.924;28.194;2022-09-09T01:04:20;85457.81;;;20.45;34.72
55486;BME280;49383;-25.924;28.194;2022-09-09T01:06:42;85459.26;;;20.25;36.05
55486;BME280;49383;-25.924;28.194;2022-09-09T01:09:16;85455.80;;;20.34;35.12
55486;BME280;49383;-25.924;28.194;2022-09-09T01:11:41;85453.73;;;20.35;35.77
55486;BME280;49383;-25.924;28.194;2022-09-09T01:14:05;85452.91;;;20.46;35.51
55486;BME280;49383;-25.924;28.194;2022-09-09T01:16:23;85455.20;;;20.53;34.51
55486;BME280;49383;-25.924;28.194;2022-09-09T01:18:51;85455.31;;;20.42;35.56
55486;BME280;49383;-25.924;28.194;2022-09-09T01:21:19;85456.76;;;20.34;35.75
55486;BME280;49383;-25.924;28.194;2022-09-09T01:23:54;85453.97;;;20.43;34.48
55486;BME280;49383;-25.924;28.194;2022-09-09T01:26:13;85452.61;;;20.36;35.25
55486;BME280;49383;-25.924;28.194;2022-09-09T01:28:31;85452.41;;;20.40;35.63
55486;BME280;49383;-25.924;28.194;2022-09-09T01:30:57;85450.06;;;20.20;34.34
55486;BME280;49383;-25.924;28.194;2022-09-09T01:33:21;85450.73;;;20.56;34.90
55486;BME280;49383;-25.924;28.194;2022-09-09T01:35:50;85450.68;;;20.48;35.89
55486;BME280;49383;-25.924;28.194;2022-09-09T01:38:13;85448.98;;;20.08;34.85
55486;BME280;49383;-25.924;28.194;2022-09-09T01:40:38;85447.58;;;20.35;35.60
55486;BME280;49383;-25.924;28.194;2022-09-09T01:43:03;85447.70;;;20.20;36.41
55486;BME280;49383;-25.924;28.194;2022-09-09T01:45:29;85446.92;;;20.31;35.15
55486;BME280;49383;-25.924;28.194;2022-09-09T01:47:54;85447.48;;;20.36;35.06
55486;BME280;49383;-25.924;28.194;2022-09-09T01:50:21;85446.40;;;20.19;36.15
55486;BME280;49383;-25.924;28.194;2022-09-09T01:52:48;85443.68;;;19.86;35.54
55486;BME280;49383;-25.924;28.194;2022-09-09T01:55:11;85442.90;;;20.06;36.44
55486;BME280;49383;-25.924;28.194;2022-09-09T01:57:43;85442.25;;;20.08;35.54
55486;BME280;49383;-25.924;28.194;2022-09-09T02:00:06;85444.16;;;20.41;35.71
55486;BME280;49383;-25.924;28.194;2022-09-09T02:02:32;85446.98;;;20.16;36.71
55486;BME280;49383;-25.924;28.194;2022-09-09T02:04:54;85447.29;;;20.18;36.07
55486;BME280;49383;-25.924;28.194;2022-09-09T02:07:31;85449.30;;;20.20;36.25
55486;BME280;49383;-25.924;28.194;2022-09-09T02:09:45;85449.95;;;20.16;35.65
55486;BME280;49383;-25.924;28.194;2022-09-09T02:12:13;85450.74;;;20.42;35.20
55486;BME280;49383;-25.924;28.194;2022-09-09T02:14:37;85450.09;;;20.09;36.51
55486;BME280;49383;-25.924;28.194;2022-09-09T02:17:03;85453.70;;;20.22;34.76
55486;BME280;49383;-25.924;28.194;2022-09-09T02:19:27;85455.75;;;20.19;34.91
55486;BME280;49383;-25.924;28.194;2022-09-09T02:21:50;85458.11;;;19.99;35.71
55486;BME280;49383;-25.924;28.194;2022-09-09T02:24:16;85457.20;;;20.08;35.74
55486;BME280;49383;-25.924;28.194;2022-09-09T02:26:42;85459.84;;;20.48;36.07
55486;BME280;49383;-25.924;28.194;2022-09-09T02:29:11;85462.38;;;20.15;36.00
55486;BME280;49383;-25.924;28.194;2022-09-09T02:31:34;85466.37;;;20.29;34.91
55486;BME280;49383;-25.924;28.194;2022-09-09T02:34:00;85466.67;;;20.13;35.73
55486;BME280;49383;-25.924;28.194;2022-09-09T02:36:25;85467.47;;;20.11;36.58
55486;BME280;49383;-25.924;28.194;2022-09-09T02:38:48;85470.56;;;20.29;35.49
55486;BME280;49383;-25.924;28.194;2022-09-09T02:41:13;85473.53;;;20.02;36.54
55486;BME280;49383;-25.924;28.194;2022-09-09T02:43:39;85475.62;;;20.04;36.99
55486;BME280;49383;-25.924;28.194;2022-09-09T02:46:12;85478.74;;;19.80;36.39
55486;BME280;49383;-25.924;28.194;2022-09-09T02:48:34;85477.80;;;20.01;37.06
55486;BME280;49383;-25.924;28.194;2022-09-09T02:51:01;85477.58;;;20.12;36.19
55486;BME280;49383;-25.924;28.194;2022-09-09T02:53:24;85479.17;;;20.07;36.61
55486;BME280;49383;-25.924;28.194;2022-09-09T02:55:48;85478.67;;;20.19;36.11
55486;BME280;49383;-25.924;28.194;2022-09-09T02:58:14;85481.39;;;20.16;36.05
55486;BME280;49383;-25.924;28.194;2022-09-09T03:00:39;85482.62;;;20.19;37.17
55486;BME280;49383;-25.924;28.194;2022-09-09T03:03:03;85485.10;;;20.41;35.98
55486;BME280;49383;-25.924;28.194;2022-09-09T03:05:28;85486.14;;;20.20;36.44
55486;BME280;49383;-25.924;28.194;2022-09-09T03:07:54;85487.08;;;20.19;36.80
55486;BME280;49383;-25.924;28.194;2022-09-09T03:10:19;85488.21;;;20.19;35.61
55486;BME280;49383;-25.924;28.194;2022-09-09T03:12:44;85491.39;;;20.04;36.65
55486;BME280;49383;-25.924;28.194;2022-09-09T03:15:10;85492.00;;;20.10;36.38
55486;BME280;49383;-25.924;28.194;2022-09-09T03:17:35;85492.81;;;20.06;36.73
55486;BME280;49383;-25.924;28.194;2022-09-09T03:20:01;85495.23;;;20.05;37.21
55486;BME280;49383;-25.924;28.194;2022-09-09T03:22:26;85498.60;;;20.12;36.53
55486;BME280;49383;-25.924;28.194;2022-09-09T03:24:52;85505.12;;;20.00;37.15
55486;BME280;49383;-25.924;28.194;2022-09-09T03:27:18;85503.02;;;20.30;37.13
55486;BME280;49383;-25.924;28.194;2022-09-09T03:29:43;85504.64;;;19.90;36.74
55486;BME280;49383;-25.924;28.194;2022-09-09T03:32:09;85505.50;;;20.19;36.93
55486;BME280;49383;-25.924;28.194;2022-09-09T03:34:34;85505.64;;;19.89;37.23
55486;BME280;49383;-25.924;28.194;2022-09-09T03:37:00;85509.48;;;19.99;37.16
55486;BME280;49383;-25.924;28.194;2022-09-09T03:39:25;85511.55;;;20.10;35.65
55486;BME280;49383;-25.924;28.194;2022-09-09T03:41:51;85513.56;;;19.98;36.60
55486;BME280;49383;-25.924;28.194;2022-09-09T03:44:17;85516.29;;;19.96;37.11
55486;BME280;49383;-25.924;28.194;2022-09-09T03:46:42;85521.19;;;20.22;35.36
55486;BME280;49383;-25.924;28.194;2022-09-09T03:49:07;85522.09;;;20.05;35.37
55486;BME280;49383;-25.924;28.194;2022-09-09T03:51:32;85525.27;;;19.94;36.59
55486;BME280;49383;-25.924;28.194;2022-09-09T03:53:58;85527.38;;;20.20;36.97
55486;BME280;49383;-25.924;28.194;2022-09-09T03:56:23;85532.79;;;20.22;36.61
55486;BME280;49383;-25.924;28.194;2022-09-09T03:58:49;85535.56;;;20.31;36.87
55486;BME280;49383;-25.924;28.194;2022-09-09T04:01:15;85537.65;;;19.70;37.13
55486;BME280;49383;-25.924;28.194;2022-09-09T04:03:41;85538.38;;;19.67;37.14
55486;BME280;49383;-25.924;28.194;2022-09-09T04:06:06;85541.41;;;20.05;36.42
55486;BME280;49383;-25.924;28.194;2022-09-09T04:08:31;85544.09;;;19.97;37.25
55486;BME280;49383;-25.924;28.194;2022-09-09T04:10:56;85546.43;;;19.97;37.54
55486;BME280;49383;-25.924;28.194;2022-09-09T04:13:21;85547.78;;;20.03;36.63
55486;BME280;49383;-25.924;28.194;2022-09-09T04:15:52;85552.03;;;19.47;37.41
55486;BME280;49383;-25.924;28.194;2022-09-09T04:18:13;85554.00;;;19.87;35.88
55486;BME280;49383;-25.924;28.194;2022-09-09T04:20:38;85556.71;;;19.85;36.54
55486;BME280;49383;-25.924;28.194;2022-09-09T04:23:03;85560.10;;;19.74;37.51
55486;BME280;49383;-25.924;28.194;2022-09-09T04:25:28;85565.19;;;19.74;37.28
55486;BME280;49383;-25.924;28.194;2022-09-09T04:27:55;85570.27;;;19.80;37.07
55486;BME280;49383;-25.924;28.194;2022-09-09T04:30:19;85572.27;;;20.20;37.63
55486;BME280;49383;-25.924;28.194;2022-09-09T04:32:45;85576.24;;;19.91;37.31
55486;BME280;49383;-25.924;28.194;2022-09-09T04:35:11;85580.69;;;19.93;37.20
55486;BME280;49383;-25.924;28.194;2022-09-09T04:37:36;85584.24;;;20.04;35.46
55486;BME280;49383;-25.924;28.194;2022-09-09T04:40:02;85587.67;;;19.78;35.88
55486;BME280;49383;-25.924;28.194;2022-09-09T04:42:27;85587.84;;;19.84;37.18
55486;BME280;49383;-25.924;28.194;2022-09-09T04:44:52;85589.19;;;19.57;36.37
55486;BME280;49383;-25.924;28.194;2022-09-09T04:47:18;85594.66;;;19.98;35.70
55486;BME280;49383;-25.924;28.194;2022-09-09T04:49:43;85597.25;;;19.83;35.76
55486;BME280;49383;-25.924;28.194;2022-09-09T04:52:09;85599.50;;;19.96;33.94
55486;BME280;49383;-25.924;28.194;2022-09-09T04:54:34;85601.47;;;20.00;33.58
55486;BME280;49383;-25.924;28.194;2022-09-09T04:57:00;85605.43;;;20.04;33.02
55486;BME280;49383;-25.924;28.194;2022-09-09T04:59:25;85608.47;;;20.00;33.01
55486;BME280;49383;-25.924;28.194;2022-09-09T05:01:50;85607.70;;;19.88;33.18
55486;BME280;49383;-25.924;28.194;2022-09-09T05:04:16;85612.52;;;19.71;33.10
55486;BME280;49383;-25.924;28.194;2022-09-09T05:06:41;85613.34;;;20.09;32.75
55486;BME280;49383;-25.924;28.194;2022-09-09T05:09:07;85617.26;;;19.82;32.84
55486;BME280;49383;-25.924;28.194;2022-09-09T05:11:33;85617.07;;;19.90;32.95
55486;BME280;49383;-25.924;28.194;2022-09-09T05:13:58;85619.14;;;19.89;32.85
55486;BME280;49383;-25.924;28.194;2022-09-09T05:16:24;85623.15;;;19.88;33.52
55486;BME280;49383;-25.924;28.194;2022-09-09T05:18:49;85625.43;;;19.70;33.47
55486;BME280;49383;-25.924;28.194;2022-09-09T05:21:16;85628.83;;;20.04;32.85
55486;BME280;49383;-25.924;28.194;2022-09-09T05:23:41;85630.11;;;20.10;32.52
55486;BME280;49383;-25.924;28.194;2022-09-09T05:26:09;85635.07;;;20.11;32.64
55486;BME280;49383;-25.924;28.194;2022-09-09T05:28:33;85639.41;;;20.25;32.41
55486;BME280;49383;-25.924;28.194;2022-09-09T05:30:58;85639.43;;;20.24;32.41
55486;BME280;49383;-25.924;28.194;2022-09-09T05:33:23;85640.35;;;20.33;32.48
55486;BME280;49383;-25.924;28.194;2022-09-09T05:35:48;85643.98;;;20.23;33.38
55486;BME280;49383;-25.924;28.194;2022-09-09T05:38:14;85647.01;;;20.32;32.63
55486;BME280;49383;-25.924;28.194;2022-09-09T05:40:39;85650.39;;;20.05;32.30
55486;BME280;49383;-25.924;28.194;2022-09-09T05:43:05;85653.99;;;20.28;32.04
55486;BME280;49383;-25.924;28.194;2022-09-09T05:45:30;85661.40;;;20.40;31.85
55486;BME280;49383;-25.924;28.194;2022-09-09T05:47:56;85664.16;;;20.52;31.92
55486;BME280;49383;-25.924;28.194;2022-09-09T05:50:21;85666.62;;;20.22;33.13
55486;BME280;49383;-25.924;28.194;2022-09-09T05:52:47;85667.31;;;20.11;33.02
55486;BME280;49383;-25.924;28.194;2022-09-09T05:55:12;85667.49;;;20.04;32.94
55486;BME280;49383;-25.924;28.194;2022-09-09T05:57:38;85668.82;;;20.37;32.75
55486;BME280;49383;-25.924;28.194;2022-09-09T06:00:05;85671.65;;;20.51;32.40
55486;BME280;49383;-25.924;28.194;2022-09-09T06:02:30;85676.30;;;20.32;32.38
55486;BME280;49383;-25.924;28.194;2022-09-09T06:04:56;85677.94;;;20.40;33.57
55486;BME280;49383;-25.924;28.194;2022-09-09T06:07:21;85672.20;;;20.44;32.87
55486;BME280;49383;-25.924;28.194;2022-09-09T06:09:46;85670.55;;;20.55;32.36
55486;BME280;49383;-25.924;28.194;2022-09-09T06:12:11;85674.98;;;20.73;31.94
55486;BME280;49383;-25.924;28.194;2022-09-09T06:14:37;85675.77;;;20.75;31.82
55486;BME280;49383;-25.924;28.194;2022-09-09T06:17:03;85676.37;;;20.99;31.66
55486;BME280;49383;-25.924;28.194;2022-09-09T06:19:28;85677.70;;;20.99;31.59
55486;BME280;49383;-25.924;28.194;2022-09-09T06:21:53;85680.84;;;20.85;31.63
55486;BME280;49383;-25.924;28.194;2022-09-09T06:24:19;85680.67;;;20.67;31.76
55486;BME280;49383;-25.924;28.194;2022-09-09T06:26:44;85684.18;;;20.73;32.85
55486;BME280;49383;-25.924;28.194;2022-09-09T06:29:10;85689.42;;;20.90;32.11
55486;BME280;49383;-25.924;28.194;2022-09-09T06:31:37;85688.80;;;21.14;31.77
55486;BME280;49383;-25.924;28.194;2022-09-09T06:34:01;85686.93;;;20.97;31.39
55486;BME280;49383;-25.924;28.194;2022-09-09T06:36:28;85687.47;;;20.66;31.22
55486;BME280;49383;-25.924;28.194;2022-09-09T06:38:52;85688.08;;;20.66;31.41
55486;BME280;49383;-25.924;28.194;2022-09-09T06:41:18;85691.27;;;21.09;30.97
55486;BME280;49383;-25.924;28.194;2022-09-09T06:43:42;85692.73;;;20.84;31.07
55486;BME280;49383;-25.924;28.194;2022-09-09T06:46:10;85695.48;;;21.14;31.19
55486;BME280;49383;-25.924;28.194;2022-09-09T06:48:33;85697.59;;;20.99;30.83
55486;BME280;49383;-25.924;28.194;2022-09-09T06:51:03;85698.05;;;21.02;30.66
55486;BME280;49383;-25.924;28.194;2022-09-09T06:53:24;85698.16;;;21.11;30.71
55486;BME280;49383;-25.924;28.194;2022-09-09T06:55:49;85700.70;;;21.18;30.63
55486;BME280;49383;-25.924;28.194;2022-09-09T06:58:15;85701.07;;;21.15;30.54
55486;BME280;49383;-25.924;28.194;2022-09-09T07:00:40;85701.05;;;21.08;30.67
55486;BME280;49383;-25.924;28.194;2022-09-09T07:03:06;85699.85;;;21.15;30.50
55486;BME280;49383;-25.924;28.194;2022-09-09T07:05:31;85701.11;;;21.55;30.59
55486;BME280;49383;-25.924;28.194;2022-09-09T07:07:57;85701.74;;;21.23;31.15
55486;BME280;49383;-25.924;28.194;2022-09-09T07:10:22;85701.33;;;21.50;31.32
55486;BME280;49383;-25.924;28.194;2022-09-09T07:12:51;85701.79;;;21.53;31.02
55486;BME280;49383;-25.924;28.194;2022-09-09T07:15:13;85699.98;;;21.55;30.87
55486;BME280;49383;-25.924;28.194;2022-09-09T07:17:39;85699.85;;;21.46;30.71
55486;BME280;49383;-25.924;28.194;2022-09-09T07:20:05;85698.00;;;21.45;30.59
55486;BME280;49383;-25.924;28.194;2022-09-09T07:22:29;85700.93;;;21.48;30.61
55486;BME280;49383;-25.924;28.194;2022-09-09T07:24:55;85699.77;;;21.47;30.50
55486;BME280;49383;-25.924;28.194;2022-09-09T07:27:21;85699.95;;;21.47;30.37
55486;BME280;49383;-25.924;28.194;2022-09-09T07:29:46;85701.21;;;21.51;30.60
55486;BME280;49383;-25.924;28.194;2022-09-09T07:32:12;85699.07;;;21.61;30.50
55486;BME280;49383;-25.924;28.194;2022-09-09T07:34:37;85697.41;;;21.58;30.18
55486;BME280;49383;-25.924;28.194;2022-09-09T07:37:03;85699.02;;;21.62;30.19
55486;BME280;49383;-25.924;28.194;2022-09-09T07:39:28;85699.25;;;21.64;30.20
55486;BME280;49383;-25.924;28.194;2022-09-09T07:41:54;85696.29;;;21.59;30.34
55486;BME280;49383;-25.924;28.194;2022-09-09T07:44:22;85696.19;;;21.75;30.22
55486;BME280;49383;-25.924;28.194;2022-09-09T07:46:45;85696.88;;;21.81;30.35
55486;BME280;49383;-25.924;28.194;2022-09-09T07:49:11;85697.10;;;22.09;30.01
55486;BME280;49383;-25.924;28.194;2022-09-09T07:51:38;85696.41;;;21.87;30.00
55486;BME280;49383;-25.924;28.194;2022-09-09T07:54:03;85696.29;;;21.79;29.93
55486;BME280;49383;-25.924;28.194;2022-09-09T07:56:28;85697.22;;;21.66;30.00
55486;BME280;49383;-25.924;28.194;2022-09-09T07:58:53;85697.38;;;21.89;29.95
55486;BME280;49383;-25.924;28.194;2022-09-09T08:01:20;85697.19;;;21.64;29.94
55486;BME280;49383;-25.924;28.194;2022-09-09T08:03:43;85700.16;;;21.84;29.87
55486;BME280;49383;-25.924;28.194;2022-09-09T08:06:09;85695.69;;;21.90;30.24
55486;BME280;49383;-25.924;28.194;2022-09-09T08:08:35;85697.63;;;21.97;30.16
55486;BME280;49383;-25.924;28.194;2022-09-09T08:11:04;85697.28;;;22.00;30.64
55486;BME280;49383;-25.924;28.194;2022-09-09T08:13:25;85699.34;;;22.10;30.64
55486;BME280;49383;-25.924;28.194;2022-09-09T08:15:50;85698.43;;;22.07;30.56
55486;BME280;49383;-25.924;28.194;2022-09-09T08:18:16;85699.36;;;22.07;30.67
55486;BME280;49383;-25.924;28.194;2022-09-09T08:20:41;85698.09;;;21.95;30.70
55486;BME280;49383;-25.924;28.194;2022-09-09T08:23:07;85699.51;;;22.02;30.55
55486;BME280;49383;-25.924;28.194;2022-09-09T08:25:32;85704.53;;;22.46;30.70
55486;BME280;49383;-25.924;28.194;2022-09-09T08:27:58;85701.00;;;22.73;31.05
55486;BME280;49383;-25.924;28.194;2022-09-09T08:30:23;85699.84;;;22.21;31.41
55486;BME280;49383;-25.924;28.194;2022-09-09T08:32:49;85695.48;;;22.63;31.88
55486;BME280;49383;-25.924;28.194;2022-09-09T08:35:14;85692.07;;;22.68;31.67
55486;BME280;49383;-25.924;28.194;2022-09-09T08:37:39;85685.04;;;22.51;32.34
55486;BME280;49383;-25.924;28.194;2022-09-09T08:40:07;85677.88;;;22.88;31.73
55486;BME280;49383;-25.924;28.194;2022-09-09T08:42:36;85677.29;;;22.87;31.80
55486;BME280;49383;-25.924;28.194;2022-09-09T08:45:03;85675.33;;;22.85;31.96
55486;BME280;49383;-25.924;28.194;2022-09-09T08:47:27;85669.94;;;23.01;31.85
55486;BME280;49383;-25.924;28.194;2022-09-09T08:50:00;85661.99;;;22.92;31.93
55486;BME280;49383;-25.924;28.194;2022-09-09T08:52:17;85664.25;;;22.74;31.84
55486;BME280;49383;-25.924;28.194;2022-09-09T08:54:38;85657.93;;;22.80;31.63
55486;BME280;49383;-25.924;28.194;2022-09-09T08:57:03;85658.77;;;23.05;31.80
55486;BME280;49383;-25.924;28.194;2022-09-09T08:59:28;85656.91;;;22.60;31.61
55486;BME280;49383;-25.924;28.194;2022-09-09T09:02:03;85655.46;;;22.68;31.78
55486;BME280;49383;-25.924;28.194;2022-09-09T09:06:53;85649.97;;;23.34;31.83
55486;BME280;49383;-25.924;28.194;2022-09-09T09:09:18;85648.28;;;23.10;31.82
55486;BME280;49383;-25.924;28.194;2022-09-09T09:11:36;85647.07;;;23.06;31.83
55486;BME280;49383;-25.924;28.194;2022-09-09T09:14:05;85648.08;;;23.06;31.77
55486;BME280;49383;-25.924;28.194;2022-09-09T09:16:31;85643.27;;;23.17;31.81
55486;BME280;49383;-25.924;28.194;2022-09-09T09:18:52;85639.25;;;23.09;31.91
55486;BME280;49383;-25.924;28.194;2022-09-09T09:21:21;85639.26;;;22.99;32.06
55486;BME280;49383;-25.924;28.194;2022-09-09T09:23:47;85634.56;;;23.07;31.97
55486;BME280;49383;-25.924;28.194;2022-09-09T09:26:10;85635.93;;;23.26;31.79
55486;BME280;49383;-25.924;28.194;2022-09-09T09:28:33;85631.64;;;23.15;31.95
55486;BME280;49383;-25.924;28.194;2022-09-09T09:31:01;85626.64;;;23.18;31.90
55486;BME280;49383;-25.924;28.194;2022-09-09T09:33:28;85620.30;;;23.20;31.90
55486;BME280;49383;-25.924;28.194;2022-09-09T09:35:49;85618.15;;;23.51;31.86
55486;BME280;49383;-25.924;28.194;2022-09-09T09:38:19;85609.07;;;23.16;31.92
55486;BME280;49383;-25.924;28.194;2022-09-09T09:43:04;85601.32;;;23.42;31.95
55486;BME280;49383;-25.924;28.194;2022-09-09T09:45:35;85597.39;;;23.13;31.97
55486;BME280;49383;-25.924;28.194;2022-09-09T09:48:00;85592.65;;;23.49;31.85
55486;BME280;49383;-25.924;28.194;2022-09-09T09:50:21;85589.43;;;23.14;31.93
55486;BME280;49383;-25.924;28.194;2022-09-09T09:52:54;85585.27;;;23.34;32.00
55486;BME280;49383;-25.924;28.194;2022-09-09T09:55:14;85581.30;;;23.34;31.97
55486;BME280;49383;-25.924;28.194;2022-09-09T09:57:37;85575.65;;;23.33;31.97
55486;BME280;49383;-25.924;28.194;2022-09-09T10:00:04;85571.02;;;23.20;32.10
55486;BME280;49383;-25.924;28.194;2022-09-09T10:02:37;85565.51;;;23.10;32.19
55486;BME280;49383;-25.924;28.194;2022-09-09T10:07:20;85560.75;;;22.84;32.45
55486;BME280;49383;-25.924;28.194;2022-09-09T10:09:43;85554.35;;;22.77;32.53
55486;BME280;49383;-25.924;28.194;2022-09-09T10:12:17;85549.84;;;22.83;32.68
55486;BME280;49383;-25.924;28.194;2022-09-09T10:14:40;85542.15;;;22.69;32.82
55486;BME280;49383;-25.924;28.194;2022-09-09T10:17:09;85538.62;;;22.66;32.82
55486;BME280;49383;-25.924;28.194;2022-09-09T10:19:30;85529.09;;;22.63;32.84
55486;BME280;49383;-25.924;28.194;2022-09-09T10:21:57;85525.49;;;23.01;32.92
55486;BME280;49383;-25.924;28.194;2022-09-09T10:26:47;85525.40;;;22.42;32.95
55486;BME280;49383;-25.924;28.194;2022-09-09T10:29:18;85518.72;;;22.56;33.07
55486;BME280;49383;-25.924;28.194;2022-09-09T10:31:37;85509.78;;;22.34;32.96
55486;BME280;49383;-25.924;28.194;2022-09-09T10:34:03;85501.83;;;22.38;32.86
55486;BME280;49383;-25.924;28.194;2022-09-09T10:36:24;85500.46;;;22.32;32.88
55486;BME280;49383;-25.924;28.194;2022-09-09T10:38:49;85497.37;;;22.55;32.88
55486;BME280;49383;-25.924;28.194;2022-09-09T10:41:19;85496.76;;;22.66;32.95
55486;BME280;49383;-25.924;28.194;2022-09-09T10:46:08;85494.09;;;22.18;32.86
55486;BME280;49383;-25.924;28.194;2022-09-09T10:48:36;85487.05;;;22.66;32.78
55486;BME280;49383;-25.924;28.194;2022-09-09T10:51:01;85486.40;;;22.38;32.79
55486;BME280;49383;-25.924;28.194;2022-09-09T10:53:26;85484.75;;;22.55;32.77
55486;BME280;49383;-25.924;28.194;2022-09-09T10:55:48;85478.01;;;22.46;32.85
55486;BME280;49383;-25.924;28.194;2022-09-09T10:58:14;85480.82;;;22.21;32.84
55486;BME280;49383;-25.924;28.194;2022-09-09T11:00:40;85479.85;;;22.25;32.70
55486;BME280;49383;-25.924;28.194;2022-09-09T11:03:02;85474.50;;;22.41;32.70
55486;BME280;49383;-25.924;28.194;2022-09-09T11:05:29;85471.40;;;22.08;32.47
55486;BME280;49383;-25.924;28.194;2022-09-09T11:07:54;85467.97;;;22.22;32.56
55486;BME280;49383;-25.924;28.194;2022-09-09T11:10:22;85464.11;;;21.93;32.49
55486;BME280;49383;-25.924;28.194;2022-09-09T11:12:42;85460.86;;;21.99;32.37
55486;BME280;49383;-25.924;28.194;2022-09-09T11:15:12;85456.25;;;22.02;32.26
55486;BME280;49383;-25.924;28.194;2022-09-09T11:17:36;85452.53;;;22.32;32.12
55486;BME280;49383;-25.924;28.194;2022-09-09T11:19:56;85447.91;;;22.10;32.02
55486;BME280;49383;-25.924;28.194;2022-09-09T11:22:27;85449.38;;;22.52;32.03
55486;BME280;49383;-25.924;28.194;2022-09-09T11:24:48;85444.95;;;22.35;31.91
55486;BME280;49383;-25.924;28.194;2022-09-09T11:27:15;85438.81;;;22.34;31.84
55486;BME280;49383;-25.924;28.194;2022-09-09T11:29:49;85438.89;;;22.14;31.73
55486;BME280;49383;-25.924;28.194;2022-09-09T11:32:13;85432.54;;;22.34;31.69
55486;BME280;49383;-25.924;28.194;2022-09-09T11:34:37;85427.84;;;22.24;31.73
55486;BME280;49383;-25.924;28.194;2022-09-09T11:37:01;85425.50;;;21.99;31.65
55486;BME280;49383;-25.924;28.194;2022-09-09T11:41:43;85419.40;;;22.00;31.46
55486;BME280;49383;-25.924;28.194;2022-09-09T11:44:12;85414.98;;;22.30;31.38
55486;BME280;49383;-25.924;28.194;2022-09-09T11:46:35;85410.20;;;22.34;31.31
55486;BME280;49383;-25.924;28.194;2022-09-09T11:49:00;85403.08;;;22.42;31.40
55486;BME280;49383;-25.924;28.194;2022-09-09T11:51:27;85400.45;;;22.24;31.29
55486;BME280;49383;-25.924;28.194;2022-09-09T11:53:50;85397.76;;;22.02;31.16
55486;BME280;49383;-25.924;28.194;2022-09-09T11:56:22;85393.97;;;22.17;31.20
55486;BME280;49383;-25.924;28.194;2022-09-09T11:58:42;85389.32;;;22.22;31.11
55486;BME280;49383;-25.924;28.194;2022-09-09T12:03:38;85379.08;;;22.17;31.02
55486;BME280;49383;-25.924;28.194;2022-09-09T12:05:56;85377.66;;;22.22;30.92
55486;BME280;49383;-25.924;28.194;2022-09-09T12:08:26;85375.34;;;21.86;30.94
55486;BME280;49383;-25.924;28.194;2022-09-09T12:10:54;85363.85;;;21.93;30.76
55486;BME280;49383;-25.924;28.194;2022-09-09T12:13:16;85369.76;;;22.42;30.77
55486;BME280;49383;-25.924;28.194;2022-09-09T12:18:01;85372.35;;;22.14;30.73
55486;BME280;49383;-25.924;28.194;2022-09-09T12:20:33;85366.83;;;22.40;30.61
55486;BME280;49383;-25.924;28.194;2022-09-09T12:23:02;85359.98;;;22.60;30.63
55486;BME280;49383;-25.924;28.194;2022-09-09T12:25:23;85359.66;;;21.93;30.57
55486;BME280;49383;-25.924;28.194;2022-09-09T12:27:46;85355.73;;;22.36;30.58
55486;BME280;49383;-25.924;28.194;2022-09-09T12:30:11;85353.14;;;22.11;30.54
55486;BME280;49383;-25.924;28.194;2022-09-09T12:32:32;85352.91;;;21.88;30.50
55486;BME280;49383;-25.924;28.194;2022-09-09T12:35:00;85350.26;;;22.17;30.46
55486;BME280;49383;-25.924;28.194;2022-09-09T12:37:29;85351.03;;;22.41;30.42
55486;BME280;49383;-25.924;28.194;2022-09-09T12:39:52;85349.32;;;22.19;30.35
55486;BME280;49383;-25.924;28.194;2022-09-09T12:42:18;85352.86;;;22.32;30.46
55486;BME280;49383;-25.924;28.194;2022-09-09T12:44:38;85352.43;;;22.30;30.42
55486;BME280;49383;-25.924;28.194;2022-09-09T12:47:04;85342.16;;;22.30;30.41
55486;BME280;49383;-25.924;28.194;2022-09-09T12:49:31;85344.48;;;21.88;30.31
55486;BME280;49383;-25.924;28.194;2022-09-09T12:51:53;85343.07;;;22.09;30.33